createdAt,value
2022-10-28T00:00:27.663Z,15.81
2022-10-28T00:02:55.066Z,15.84
2022-10-28T00:05:22.234Z,15.83
2022-10-28T00:07:48.938Z,15.96
2022-10-28T00:10:15.743Z,15.99
2022-10-28T00:12:43.058Z,15.77
2022-10-28T00:15:09.928Z,15.61
2022-10-28T00:17:36.654Z,15.59
2022-10-28T00:20:04.083Z,15.45
2022-10-28T00:22:30.889Z,15.55
2022-10-28T00:24:57.590Z,15.47
2022-10-28T00:27:24.351Z,15.67
2022-10-28T00:29:51.318Z,15.06
2022-10-28T00:32:18.055Z,14.52
2022-10-28T00:34:44.991Z,15.07
2022-10-28T00:37:11.697Z,13.93
2022-10-28T00:39:38.480Z,14.34
2022-10-28T00:42:07.258Z,14.93
2022-10-28T00:44:53.977Z,15.24
2022-10-28T00:47:40.371Z,15.33
2022-10-28T00:50:25.403Z,15.39
2022-10-28T00:52:56.819Z,15.32
2022-10-28T00:55:24.841Z,15.27
2022-10-28T00:57:56.700Z,15.12
2022-10-28T01:00:25.372Z,15.25
2022-10-28T01:02:52.275Z,15.39
2022-10-28T01:05:25.748Z,15.42
2022-10-28T01:07:57.328Z,15.29
2022-10-28T01:10:48.702Z,15.21
2022-10-28T01:14:07.396Z,15.37
2022-10-28T01:16:36.911Z,15.34
2022-10-28T01:19:50.185Z,15.27
2022-10-28T01:22:17.126Z,15.12
2022-10-28T01:25:23.773Z,15.03
2022-10-28T01:28:24.407Z,14.95
2022-10-28T01:31:36.406Z,14.46
2022-10-28T01:34:08.837Z,13.52
2022-10-28T01:36:45.248Z,13.73
2022-10-28T01:39:39.452Z,13.65
2022-10-28T01:42:12.027Z,14.01
2022-10-28T01:44:48.570Z,14.34
2022-10-28T01:47:37.359Z,14.43
2022-10-28T01:50:12.857Z,14.44
2022-10-28T01:52:41.308Z,14.39
2022-10-28T01:55:21.504Z,14.46
2022-10-28T01:57:51.328Z,14.37
2022-10-28T02:00:18.391Z,14.58
2022-10-28T02:02:48.162Z,14.63
2022-10-28T02:05:33.915Z,14.54
2022-10-28T02:08:11.224Z,14.56
2022-10-28T02:10:46.937Z,14.59
2022-10-28T02:13:15.311Z,14.44
2022-10-28T02:16:08.419Z,14.45
2022-10-28T02:19:01.435Z,14.16
2022-10-28T02:22:24.190Z,14.06
2022-10-28T02:25:02.751Z,14.11
2022-10-28T02:27:57.998Z,13.96
2022-10-28T02:31:06.087Z,14.22
2022-10-28T02:33:38.343Z,14.09
2022-10-28T02:36:12.456Z,14.00
2022-10-28T02:38:44.619Z,13.94
2022-10-28T02:41:25.306Z,13.98
2022-10-28T02:43:56.138Z,14.03
2022-10-28T02:46:26.995Z,14.01
2022-10-28T02:48:57.579Z,14.02
2022-10-28T02:51:30.185Z,14.07
2022-10-28T02:54:06.402Z,14.06
2022-10-28T02:56:39.680Z,14.07
2022-10-28T02:59:12.029Z,14.09
2022-10-28T03:01:39.984Z,14.17
2022-10-28T03:04:07.022Z,14.12
2022-10-28T03:06:33.810Z,14.21
2022-10-28T03:09:00.492Z,14.28
2022-10-28T03:11:27.546Z,14.48
2022-10-28T03:13:54.302Z,14.56
2022-10-28T03:16:21.135Z,14.48
2022-10-28T03:18:47.881Z,14.56
2022-10-28T03:21:14.615Z,14.49
2022-10-28T03:23:41.351Z,14.52
2022-10-28T03:26:08.291Z,14.37
2022-10-28T03:28:35.074Z,14.38
2022-10-28T03:31:01.991Z,14.40
2022-10-28T03:33:28.801Z,14.50
2022-10-28T03:35:55.695Z,14.59
2022-10-28T03:38:22.400Z,14.38
2022-10-28T03:40:50.215Z,14.40
2022-10-28T03:43:18.026Z,14.47
2022-10-28T03:45:44.744Z,14.41
2022-10-28T03:48:11.550Z,14.48
2022-10-28T03:50:38.223Z,14.40
2022-10-28T03:53:05.032Z,14.34
2022-10-28T03:55:31.847Z,14.33
2022-10-28T03:58:01.697Z,14.45
2022-10-28T04:00:29.782Z,14.38
2022-10-28T04:02:56.828Z,14.30
2022-10-28T04:05:23.791Z,14.29
2022-10-28T04:07:50.717Z,14.21
2022-10-28T04:10:17.579Z,14.33
2022-10-28T04:12:44.306Z,14.27
2022-10-28T04:15:11.177Z,14.19
2022-10-28T04:17:37.990Z,14.08
2022-10-28T04:20:05.325Z,14.11
2022-10-28T04:22:32.030Z,14.11
2022-10-28T04:25:17.603Z,14.05
2022-10-28T04:27:45.306Z,13.85
2022-10-28T04:30:13.098Z,13.94
2022-10-28T04:32:41.295Z,13.78
2022-10-28T04:35:09.531Z,12.79
2022-10-28T04:37:36.423Z,12.53
2022-10-28T04:40:04.445Z,13.38
2022-10-28T04:42:31.350Z,13.49
2022-10-28T04:44:58.039Z,13.18
2022-10-28T04:47:24.856Z,13.99
2022-10-28T04:49:51.714Z,14.24
2022-10-28T04:52:18.485Z,13.86
2022-10-28T04:54:45.511Z,13.94
2022-10-28T04:57:12.246Z,13.68
2022-10-28T04:59:39.144Z,13.47
2022-10-28T05:02:06.011Z,13.42
2022-10-28T05:04:32.882Z,13.54
2022-10-28T05:06:59.658Z,13.43
2022-10-28T05:09:26.624Z,13.54
2022-10-28T05:11:54.360Z,13.65
2022-10-28T05:14:21.064Z,13.89
2022-10-28T05:16:48.152Z,13.99
2022-10-28T05:19:14.904Z,13.77
2022-10-28T05:21:41.597Z,13.14
2022-10-28T05:24:08.752Z,13.58
2022-10-28T05:26:35.409Z,13.54
2022-10-28T05:29:02.093Z,12.95
2022-10-28T05:31:28.835Z,13.40
2022-10-28T05:33:55.669Z,13.38
2022-10-28T05:36:22.343Z,13.49
2022-10-28T05:38:49.762Z,13.29
2022-10-28T05:41:16.581Z,13.63
2022-10-28T05:43:43.397Z,13.56
2022-10-28T05:46:10.115Z,13.22
2022-10-28T05:48:36.924Z,13.63
2022-10-28T05:51:03.805Z,13.65
2022-10-28T05:53:30.788Z,13.36
2022-10-28T05:55:58.821Z,13.59
2022-10-28T05:58:25.559Z,13.56
2022-10-28T06:00:52.283Z,13.94
2022-10-28T06:03:19.172Z,13.90
2022-10-28T06:05:46.114Z,13.66
2022-10-28T06:08:13.943Z,14.22
2022-10-28T06:10:41.586Z,14.39
2022-10-28T06:13:07.703Z,14.14
2022-10-28T06:15:34.541Z,14.45
2022-10-28T06:18:01.311Z,14.27
2022-10-28T06:20:28.184Z,14.51
2022-10-28T06:22:56.142Z,14.27
2022-10-28T06:25:24.808Z,13.80
2022-10-28T06:27:55.911Z,13.16
2022-10-28T06:30:24.173Z,14.15
2022-10-28T06:32:51.114Z,13.58
2022-10-28T06:35:18.100Z,13.83
2022-10-28T06:37:44.761Z,13.81
2022-10-28T06:40:11.503Z,13.44
2022-10-28T06:42:38.160Z,14.18
2022-10-28T06:45:05.560Z,14.29
2022-10-28T06:47:39.070Z,14.28
2022-10-28T06:50:08.745Z,14.60
2022-10-28T06:52:35.567Z,14.73
2022-10-28T06:55:02.392Z,14.29
2022-10-28T06:57:29.424Z,15.01
2022-10-28T06:59:56.222Z,15.02
2022-10-28T07:02:23.280Z,15.16
2022-10-28T07:04:49.997Z,14.67
2022-10-28T07:07:16.902Z,15.40
2022-10-28T07:09:45.074Z,15.79
2022-10-28T07:12:12.363Z,15.16
2022-10-28T07:14:39.064Z,15.54
2022-10-28T07:17:05.897Z,15.38
2022-10-28T07:19:32.567Z,15.73
2022-10-28T07:21:59.342Z,15.99
2022-10-28T07:26:58.403Z,15.30
2022-10-28T07:29:25.162Z,15.99
2022-10-28T07:31:54.772Z,15.42
2022-10-28T07:34:26.762Z,16.22
2022-10-28T07:36:55.724Z,16.68
2022-10-28T07:39:22.972Z,15.53
2022-10-28T07:41:49.875Z,15.82
2022-10-28T07:44:16.826Z,16.57
2022-10-28T07:46:43.554Z,15.55
2022-10-28T07:49:10.242Z,15.60
2022-10-28T07:51:37.021Z,15.79
2022-10-28T07:54:03.890Z,16.73
2022-10-28T07:56:30.841Z,17.03
2022-10-28T07:58:57.602Z,16.62
2022-10-28T08:01:24.351Z,16.92
2022-10-28T08:03:51.362Z,17.76
2022-10-28T08:06:20.906Z,17.44
2022-10-28T08:08:52.695Z,17.85
2022-10-28T08:11:22.558Z,18.31
2022-10-28T08:13:50.154Z,18.11
2022-10-28T08:16:17.203Z,19.01
2022-10-28T08:18:45.782Z,18.48
2022-10-28T08:21:13.725Z,18.72
2022-10-28T08:23:41.578Z,19.17
2022-10-28T08:26:08.428Z,19.43
2022-10-28T08:28:35.128Z,18.19
2022-10-28T08:31:08.750Z,19.14
2022-10-28T08:33:38.153Z,18.28
2022-10-28T08:36:06.041Z,18.33
2022-10-28T08:38:32.938Z,18.39
2022-10-28T08:41:33.746Z,18.47
2022-10-28T08:44:23.508Z,18.97
2022-10-28T08:47:05.274Z,19.65
2022-10-28T08:49:36.494Z,19.80
2022-10-28T08:52:24.878Z,19.96
2022-10-28T08:55:14.032Z,19.94
2022-10-28T08:57:49.594Z,20.62
2022-10-28T09:00:29.166Z,19.80
2022-10-28T09:03:14.785Z,19.94
2022-10-28T09:05:44.825Z,20.23
2022-10-28T09:08:34.001Z,20.82
2022-10-28T09:11:17.312Z,21.25
2022-10-28T09:14:02.927Z,20.81
2022-10-28T09:16:38.714Z,20.34
2022-10-28T09:19:16.310Z,20.36
2022-10-28T09:22:14.419Z,21.30
2022-10-28T09:24:51.918Z,21.17
2022-10-28T09:27:33.771Z,21.64
2022-10-28T09:30:27.884Z,22.73
2022-10-28T09:33:28.666Z,22.44
2022-10-28T09:35:57.039Z,22.37
2022-10-28T09:38:32.833Z,22.71
2022-10-28T09:41:11.208Z,22.24
2022-10-28T09:43:46.158Z,21.37
2022-10-28T09:46:16.123Z,22.45
2022-10-28T09:48:52.097Z,21.99
2022-10-28T09:51:31.219Z,22.27
2022-10-28T09:53:59.600Z,22.11
2022-10-28T09:56:28.037Z,21.75
2022-10-28T09:58:58.101Z,22.53
2022-10-28T10:01:25.305Z,22.19
2022-10-28T10:03:52.525Z,22.23
2022-10-28T10:06:32.278Z,22.27
2022-10-28T10:09:00.222Z,23.06
2022-10-28T10:11:29.517Z,22.40
2022-10-28T10:13:59.652Z,22.96
2022-10-28T10:16:47.393Z,22.55
2022-10-28T10:19:14.328Z,22.56
2022-10-28T10:21:44.366Z,22.90
2022-10-28T10:24:24.424Z,22.96
2022-10-28T10:26:52.588Z,23.21
2022-10-28T10:29:20.692Z,22.63
2022-10-28T10:31:48.079Z,22.92
2022-10-28T10:34:24.533Z,23.93
2022-10-28T10:36:55.609Z,23.77
2022-10-28T10:39:42.732Z,23.70
2022-10-28T10:42:17.575Z,23.49
2022-10-28T10:45:01.492Z,23.17
2022-10-28T10:47:28.877Z,23.72
2022-10-28T10:50:20.187Z,23.84
2022-10-28T10:52:57.284Z,24.03
2022-10-28T10:55:37.040Z,23.35
2022-10-28T10:58:05.970Z,23.11
2022-10-28T11:00:37.572Z,23.31
2022-10-28T11:03:25.784Z,23.91
2022-10-28T11:06:18.268Z,23.20
2022-10-28T11:08:46.609Z,23.24
2022-10-28T11:11:31.557Z,22.81
2022-10-28T11:14:26.013Z,23.95
2022-10-28T11:17:03.128Z,23.72
2022-10-28T11:19:35.881Z,23.79
2022-10-28T11:22:11.875Z,24.06
2022-10-28T11:25:00.537Z,24.31
2022-10-28T11:27:55.460Z,24.45
2022-10-28T11:30:43.813Z,24.41
2022-10-28T11:33:34.379Z,24.55
2022-10-28T11:36:01.510Z,24.54
2022-10-28T11:39:00.032Z,24.66
2022-10-28T11:41:35.743Z,25.56
2022-10-28T11:44:11.945Z,25.87
2022-10-28T11:46:49.692Z,26.09
2022-10-28T11:49:19.387Z,26.49
2022-10-28T11:51:58.435Z,26.59
2022-10-28T11:54:45.035Z,26.69
2022-10-28T11:57:14.573Z,26.68
2022-10-28T12:00:09.198Z,27.08
2022-10-28T12:02:53.178Z,26.94
2022-10-28T12:05:38.192Z,26.83
2022-10-28T12:08:11.559Z,27.82
2022-10-28T12:10:56.803Z,28.34
2022-10-28T12:13:42.395Z,28.19
2022-10-28T12:16:36.566Z,28.10
2022-10-28T12:19:30.648Z,29.81
2022-10-28T12:22:05.813Z,29.12
2022-10-28T12:24:36.304Z,29.55
2022-10-28T12:27:17.095Z,30.14
2022-10-28T12:29:53.236Z,30.00
2022-10-28T12:32:28.730Z,30.14
2022-10-28T12:35:22.584Z,30.89
2022-10-28T12:37:55.596Z,30.34
2022-10-28T12:40:25.975Z,31.05
2022-10-28T12:43:08.052Z,31.71
2022-10-28T12:45:35.967Z,31.54
2022-10-28T12:48:24.195Z,32.34
2022-10-28T12:50:56.715Z,32.32
2022-10-28T12:53:35.855Z,32.01
2022-10-28T12:56:12.365Z,33.67
2022-10-28T12:59:09.046Z,33.05
2022-10-28T13:01:36.768Z,32.24
2022-10-28T13:04:04.011Z,32.71
2022-10-28T13:07:11.087Z,33.12
2022-10-28T13:09:54.227Z,33.71
2022-10-28T13:12:42.805Z,32.91
2022-10-28T13:15:37.704Z,33.40
2022-10-28T13:18:35.424Z,34.10
2022-10-28T13:21:06.792Z,32.88
2022-10-28T13:23:42.539Z,32.99
2022-10-28T13:26:37.868Z,33.37
2022-10-28T13:29:07.424Z,33.54
2022-10-28T13:31:44.261Z,33.67
2022-10-28T13:34:14.946Z,33.41
2022-10-28T13:36:44.449Z,32.98
2022-10-28T13:39:24.846Z,33.46
2022-10-28T13:42:14.796Z,32.81
2022-10-28T13:44:58.865Z,31.71
2022-10-28T13:47:39.428Z,31.32
2022-10-28T13:50:06.415Z,29.11
2022-10-28T13:52:47.219Z,29.43
2022-10-28T13:55:14.073Z,29.63
2022-10-28T13:57:46.539Z,27.75
2022-10-28T14:00:19.183Z,27.25
2022-10-28T14:03:00.048Z,27.48
2022-10-28T14:05:47.452Z,27.00
2022-10-28T14:08:26.228Z,27.13
2022-10-28T14:11:08.328Z,27.28
2022-10-28T14:13:41.744Z,27.04
2022-10-28T14:16:24.285Z,27.14
2022-10-28T14:19:00.444Z,26.93
2022-10-28T14:22:01.777Z,26.79
2022-10-28T14:24:35.203Z,25.90
2022-10-28T14:27:08.290Z,26.27
2022-10-28T14:29:57.102Z,26.05
2022-10-28T14:32:33.341Z,25.83
2022-10-28T14:35:20.377Z,25.94
2022-10-28T14:38:05.691Z,26.08
2022-10-28T14:40:44.624Z,25.70
2022-10-28T14:43:14.332Z,24.97
2022-10-28T14:45:48.440Z,25.58
2022-10-28T14:48:18.399Z,25.52
2022-10-28T14:50:47.969Z,25.50
2022-10-28T14:53:27.981Z,26.29
2022-10-28T14:56:08.100Z,26.39
2022-10-28T14:58:43.939Z,26.18
2022-10-28T15:01:16.902Z,25.88
2022-10-28T15:03:50.073Z,25.54
2022-10-28T15:06:39.433Z,25.45
2022-10-28T15:09:21.629Z,25.47
2022-10-28T15:11:56.163Z,25.09
2022-10-28T15:14:28.158Z,25.14
2022-10-28T15:16:55.395Z,24.97
2022-10-28T15:19:27.635Z,24.83
2022-10-28T15:22:12.626Z,24.70
2022-10-28T15:24:44.597Z,24.64
2022-10-28T15:27:15.349Z,24.57
2022-10-28T15:29:43.169Z,24.43
2022-10-28T15:32:22.210Z,24.10
2022-10-28T15:34:49.790Z,23.91
2022-10-28T15:37:21.547Z,23.96
2022-10-28T15:39:55.504Z,23.76
2022-10-28T15:42:37.907Z,23.45
2022-10-28T15:45:05.933Z,23.34
2022-10-28T15:47:35.200Z,22.68
2022-10-28T15:50:19.966Z,22.56
2022-10-28T15:52:54.743Z,21.67
2022-10-28T15:55:26.752Z,21.98
2022-10-28T15:58:22.607Z,22.33
2022-10-28T16:00:54.015Z,22.40
2022-10-28T16:03:41.559Z,22.34
2022-10-28T16:06:31.775Z,22.11
2022-10-28T16:09:12.159Z,22.01
2022-10-28T16:11:46.590Z,21.46
2022-10-28T16:14:33.406Z,21.15
2022-10-28T16:17:27.273Z,20.90
2022-10-28T16:19:59.157Z,20.61
2022-10-28T16:22:28.117Z,20.82
2022-10-28T16:24:55.996Z,21.04
2022-10-28T16:27:28.667Z,20.94
2022-10-28T16:29:55.505Z,20.85
2022-10-28T16:32:28.885Z,21.10
2022-10-28T16:34:57.931Z,21.14
2022-10-28T16:37:27.276Z,21.00
2022-10-28T16:39:54.881Z,20.35
2022-10-28T16:42:22.926Z,20.61
2022-10-28T16:44:51.196Z,20.16
2022-10-28T16:47:20.630Z,20.23
2022-10-28T16:49:54.326Z,19.98
2022-10-28T16:52:30.132Z,20.27
2022-10-28T16:54:57.719Z,20.24
2022-10-28T16:59:56.500Z,20.18
2022-10-28T17:02:32.162Z,20.23
2022-10-28T17:04:59.860Z,20.28
2022-10-28T17:07:28.767Z,19.92
2022-10-28T17:09:56.829Z,19.88
2022-10-28T17:12:26.896Z,20.07
2022-10-28T17:14:53.726Z,20.17
2022-10-28T17:17:20.680Z,19.66
2022-10-28T17:19:47.463Z,19.89
2022-10-28T17:22:14.365Z,19.80
2022-10-28T17:24:41.272Z,19.71
2022-10-28T17:27:08.221Z,19.86
2022-10-28T17:29:35.142Z,19.83
2022-10-28T17:32:02.641Z,19.76
2022-10-28T17:34:29.379Z,19.75
2022-10-28T17:36:56.608Z,19.74
2022-10-28T17:39:26.209Z,19.51
2022-10-28T17:41:53.719Z,19.12
2022-10-28T17:44:20.705Z,18.91
2022-10-28T17:46:51.489Z,19.17
2022-10-28T17:49:18.634Z,19.13
2022-10-28T17:51:45.424Z,19.25
2022-10-28T17:54:12.503Z,18.64
2022-10-28T17:56:42.220Z,18.62
2022-10-28T17:59:09.586Z,18.93
2022-10-28T18:01:36.900Z,18.92
2022-10-28T18:04:04.632Z,18.84
2022-10-28T18:06:32.138Z,18.61
2022-10-28T18:08:59.126Z,18.26
2022-10-28T18:11:27.523Z,18.10
2022-10-28T18:13:56.340Z,18.00
2022-10-28T18:16:27.566Z,18.06
2022-10-28T18:18:55.997Z,18.31
2022-10-28T18:21:25.176Z,18.23
2022-10-28T18:23:53.192Z,18.38
2022-10-28T18:26:20.926Z,18.06
2022-10-28T18:28:49.138Z,17.57
2022-10-28T18:31:18.978Z,18.01
2022-10-28T18:33:47.134Z,17.75
2022-10-28T18:36:16.858Z,17.51
2022-10-28T18:38:44.003Z,17.15
2022-10-28T18:41:16.212Z,17.38
2022-10-28T18:43:43.006Z,17.56
2022-10-28T18:46:10.422Z,17.62
2022-10-28T18:48:37.648Z,18.02
2022-10-28T18:51:06.866Z,17.90
2022-10-28T18:53:42.318Z,17.98
2022-10-28T18:56:17.289Z,18.26
2022-10-28T18:58:44.781Z,18.21
2022-10-28T19:01:17.206Z,18.14
2022-10-28T19:03:44.641Z,18.03
2022-10-28T19:06:13.862Z,18.21
2022-10-28T19:08:41.694Z,18.30
2022-10-28T19:11:10.711Z,18.27
2022-10-28T19:13:39.934Z,18.43
2022-10-28T19:16:09.060Z,18.27
2022-10-28T19:18:38.242Z,17.96
2022-10-28T19:21:12.782Z,17.56
2022-10-28T19:23:40.444Z,16.78
2022-10-28T19:26:08.001Z,17.22
2022-10-28T19:28:42.763Z,17.52
2022-10-28T19:31:12.884Z,17.65
2022-10-28T19:33:40.258Z,17.65
2022-10-28T19:36:25.549Z,17.74
2022-10-28T19:38:56.372Z,17.67
2022-10-28T19:41:25.624Z,17.60
2022-10-28T19:43:56.897Z,17.65
2022-10-28T19:46:26.246Z,17.37
2022-10-28T19:48:55.879Z,17.59
2022-10-28T19:51:31.288Z,17.53
2022-10-28T19:54:00.572Z,17.69
2022-10-28T19:56:28.637Z,17.63
2022-10-28T19:58:57.806Z,17.49
2022-10-28T20:01:26.503Z,17.59
2022-10-28T20:03:54.842Z,17.47
2022-10-28T20:06:24.199Z,17.72
2022-10-28T20:08:51.133Z,17.57
2022-10-28T20:11:24.720Z,17.39
2022-10-28T20:13:56.888Z,17.27
2022-10-28T20:16:25.320Z,17.19
2022-10-28T20:18:54.060Z,17.04
2022-10-28T20:21:22.531Z,17.10
2022-10-28T20:23:53.661Z,16.67
2022-10-28T20:26:25.993Z,15.63
2022-10-28T20:28:53.232Z,16.28
2022-10-28T20:31:22.559Z,16.36
2022-10-28T20:33:58.670Z,16.44
2022-10-28T20:36:27.120Z,16.59
2022-10-28T20:38:55.314Z,16.31
2022-10-28T20:41:23.599Z,15.86
2022-10-28T20:43:51.754Z,15.83
2022-10-28T20:46:20.288Z,15.25
2022-10-28T20:48:48.165Z,14.50
2022-10-28T20:51:15.589Z,14.45
2022-10-28T20:53:42.867Z,15.23
2022-10-28T20:56:23.992Z,15.14
2022-10-28T20:58:51.938Z,15.67
2022-10-28T21:01:22.034Z,15.58
2022-10-28T21:03:49.480Z,15.08
2022-10-28T21:06:17.229Z,15.63
2022-10-28T21:08:44.169Z,15.41
2022-10-28T21:11:13.363Z,14.80
2022-10-28T21:13:40.581Z,15.34
2022-10-28T21:16:09.810Z,15.06
2022-10-28T21:18:37.798Z,14.65
2022-10-28T21:21:05.246Z,14.26
2022-10-28T21:23:32.163Z,14.91
2022-10-28T21:26:01.164Z,15.27
2022-10-28T21:28:29.033Z,15.46
2022-10-28T21:31:02.498Z,15.63
2022-10-28T21:33:30.032Z,15.50
2022-10-28T21:35:58.200Z,15.47
2022-10-28T21:38:27.077Z,15.49
2022-10-28T21:41:11.589Z,15.33
2022-10-28T21:43:40.666Z,15.35
2022-10-28T21:46:07.917Z,15.42
2022-10-28T21:48:36.023Z,15.47
2022-10-28T21:51:08.580Z,15.44
2022-10-28T21:53:39.618Z,15.23
2022-10-28T21:56:16.680Z,15.21
2022-10-28T21:58:44.588Z,14.12
2022-10-28T22:01:12.836Z,14.27
2022-10-28T22:03:39.997Z,13.64
2022-10-28T22:06:07.395Z,13.48
2022-10-28T22:08:34.707Z,13.62
2022-10-28T22:11:16.855Z,13.82
2022-10-28T22:13:44.141Z,14.44
2022-10-28T22:16:13.126Z,14.74
2022-10-28T22:18:40.466Z,14.88
2022-10-28T22:21:15.608Z,14.59
2022-10-28T22:23:42.819Z,14.65
2022-10-28T22:26:13.146Z,13.84
2022-10-28T22:28:40.268Z,13.59
2022-10-28T22:31:09.392Z,13.96
2022-10-28T22:33:37.105Z,13.92
2022-10-28T22:36:06.497Z,13.93
2022-10-28T22:38:34.129Z,14.50
2022-10-28T22:41:11.319Z,14.70
2022-10-28T22:43:39.015Z,14.69
2022-10-28T22:46:06.107Z,14.43
2022-10-28T22:48:33.687Z,14.80
2022-10-28T22:51:00.902Z,14.73
2022-10-28T22:53:27.752Z,14.90
2022-10-28T22:55:55.582Z,15.07
2022-10-28T22:58:24.168Z,15.12
2022-10-28T23:00:51.321Z,14.91
2022-10-28T23:03:18.415Z,14.19
2022-10-28T23:05:45.669Z,13.17
2022-10-28T23:08:15.448Z,13.81
2022-10-28T23:10:43.085Z,14.10
2022-10-28T23:13:13.412Z,14.10
2022-10-28T23:15:40.304Z,14.12
2022-10-28T23:18:07.058Z,14.29
2022-10-28T23:20:35.747Z,14.23
2022-10-28T23:23:02.634Z,14.24
2022-10-28T23:25:29.633Z,14.22
2022-10-28T23:27:56.864Z,14.21
2022-10-28T23:30:24.185Z,14.18
2022-10-28T23:32:50.858Z,14.16
2022-10-28T23:35:17.639Z,13.84
2022-10-28T23:37:45.350Z,13.87
2022-10-28T23:40:12.309Z,13.19
2022-10-28T23:42:39.331Z,13.26
2022-10-28T23:45:07.020Z,13.16
2022-10-28T23:47:33.758Z,13.25
2022-10-28T23:50:00.509Z,13.52
2022-10-28T23:52:27.529Z,13.82
2022-10-28T23:54:54.252Z,13.93
2022-10-28T23:57:20.994Z,13.86
2022-10-28T23:59:47.854Z,13.45
